createdAt,value
2023-03-05T00:00:05.397Z,27.90
2023-03-05T00:00:17.996Z,27.45
2023-03-05T00:00:29.930Z,27.45
2023-03-05T00:00:41.902Z,28.98
2023-03-05T00:00:53.859Z,32.70
2023-03-05T00:01:11.047Z,32.40
2023-03-05T00:01:26.683Z,32.40
2023-03-05T00:01:38.790Z,32.33
2023-03-05T00:01:50.683Z,31.88
2023-03-05T00:02:03.109Z,35.10
2023-03-05T00:02:16.022Z,33.25
2023-03-05T00:02:28.004Z,31.27
2023-03-05T00:02:42.877Z,30.73
2023-03-05T00:02:54.997Z,31.17
2023-03-05T00:03:06.968Z,30.05
2023-03-05T00:03:18.967Z,29.67
2023-03-05T00:03:30.979Z,30.27
2023-03-05T00:03:43.171Z,33.00
2023-03-05T00:03:57.970Z,33.67
2023-03-05T00:04:15.370Z,32.67
2023-03-05T00:04:27.463Z,31.42
2023-03-05T00:04:39.391Z,32.05
2023-03-05T00:04:51.324Z,32.20
2023-03-05T00:05:03.438Z,31.73
2023-03-05T00:05:15.468Z,31.05
2023-03-05T00:05:27.488Z,31.95
2023-03-05T00:05:39.497Z,32.90
2023-03-05T00:05:56.971Z,35.75
2023-03-05T00:06:08.945Z,36.63
2023-03-05T00:06:23.081Z,33.25
2023-03-05T00:06:35.126Z,32.55
2023-03-05T00:06:47.217Z,32.85
2023-03-05T00:06:59.164Z,34.10
2023-03-05T00:07:14.191Z,34.08
2023-03-05T00:07:26.168Z,33.33
2023-03-05T00:07:38.195Z,33.20
2023-03-05T00:07:50.921Z,35.50
2023-03-05T00:08:02.981Z,34.28
2023-03-05T00:08:15.022Z,31.42
2023-03-05T00:08:28.193Z,27.27
2023-03-05T00:08:40.446Z,29.25
2023-03-05T00:08:53.406Z,31.05
2023-03-05T00:09:06.049Z,28.98
2023-03-05T00:09:18.094Z,32.00
2023-03-05T00:09:30.015Z,31.42
2023-03-05T00:09:42.074Z,30.10
2023-03-05T00:09:54.074Z,29.02
2023-03-05T00:10:06.753Z,31.38
2023-03-05T00:10:18.702Z,33.90
2023-03-05T00:10:30.635Z,32.40
2023-03-05T00:10:42.628Z,31.90
2023-03-05T00:11:03.341Z,31.73
2023-03-05T00:11:15.404Z,29.45
2023-03-05T00:11:30.095Z,28.50
2023-03-05T00:11:42.358Z,30.75
2023-03-05T00:11:54.292Z,32.28
2023-03-05T00:12:08.017Z,30.50
2023-03-05T00:12:20.038Z,29.45
2023-03-05T00:12:32.083Z,31.33
2023-03-05T00:12:43.983Z,31.75
2023-03-05T00:12:56.003Z,30.05
2023-03-05T00:13:08.088Z,31.15
2023-03-05T00:13:20.034Z,31.80
2023-03-05T00:13:35.487Z,32.40
2023-03-05T00:13:47.606Z,32.15
2023-03-05T00:14:01.847Z,31.60
2023-03-05T00:14:13.869Z,29.98
2023-03-05T00:14:25.807Z,27.00
2023-03-05T00:14:37.737Z,27.13
2023-03-05T00:14:49.701Z,28.15
2023-03-05T00:15:01.711Z,32.95
2023-03-05T00:15:16.054Z,36.63
2023-03-05T00:15:28.014Z,34.13
2023-03-05T00:15:43.043Z,30.15
2023-03-05T00:15:55.706Z,29.42
2023-03-05T00:16:11.770Z,32.03
2023-03-05T00:16:26.724Z,32.70
2023-03-05T00:16:39.869Z,32.17
2023-03-05T00:16:51.816Z,35.13
2023-03-05T00:17:05.861Z,35.92
2023-03-05T00:17:18.123Z,35.53
2023-03-05T00:17:30.295Z,31.80
2023-03-05T00:17:42.264Z,30.13
2023-03-05T00:17:54.172Z,30.88
2023-03-05T00:18:06.224Z,31.67
2023-03-05T00:18:21.575Z,31.15
2023-03-05T00:18:34.291Z,31.38
2023-03-05T00:18:46.570Z,30.48
2023-03-05T00:19:00.213Z,30.67
2023-03-05T00:19:12.353Z,32.50
2023-03-05T00:19:24.255Z,32.38
2023-03-05T00:19:36.445Z,31.00
2023-03-05T00:19:48.540Z,30.92
2023-03-05T00:20:02.340Z,31.65
2023-03-05T00:20:15.007Z,34.72
2023-03-05T00:20:27.011Z,34.92
2023-03-05T00:20:38.949Z,35.58
2023-03-05T00:20:50.943Z,35.88
2023-03-05T00:21:06.262Z,34.95
2023-03-05T00:21:18.138Z,33.20
2023-03-05T00:21:33.260Z,32.25
2023-03-05T00:21:45.893Z,31.30
2023-03-05T00:21:57.871Z,32.58
2023-03-05T00:22:09.989Z,31.00
2023-03-05T00:22:21.941Z,30.02
2023-03-05T00:22:35.565Z,30.83
2023-03-05T00:22:47.508Z,30.02
2023-03-05T00:22:59.413Z,28.20
2023-03-05T00:23:11.691Z,26.65
2023-03-05T00:23:23.763Z,28.95
2023-03-05T00:23:35.659Z,30.70
2023-03-05T00:23:47.745Z,32.13
2023-03-05T00:24:01.614Z,32.55
2023-03-05T00:24:17.153Z,32.45
2023-03-05T00:24:29.063Z,29.73
2023-03-05T00:24:41.098Z,29.77
2023-03-05T00:24:53.514Z,29.83
2023-03-05T00:25:05.991Z,30.88
2023-03-05T00:25:18.202Z,33.78
2023-03-05T00:25:30.111Z,34.40
2023-03-05T00:25:42.750Z,34.90
2023-03-05T00:25:54.738Z,31.23
2023-03-05T00:26:07.759Z,31.48
2023-03-05T00:26:22.148Z,31.17
2023-03-05T00:26:36.877Z,29.88
2023-03-05T00:26:49.722Z,28.80
2023-03-05T00:27:02.236Z,30.73
2023-03-05T00:27:15.063Z,29.80
2023-03-05T00:27:27.013Z,27.63
2023-03-05T00:27:38.959Z,27.90
2023-03-05T00:27:50.925Z,28.13
2023-03-05T00:28:03.667Z,31.73
2023-03-05T00:28:15.659Z,30.63
2023-03-05T00:28:27.561Z,30.10
2023-03-05T00:28:39.626Z,30.08
2023-03-05T00:28:52.504Z,33.67
2023-03-05T00:29:05.584Z,35.00
2023-03-05T00:29:20.352Z,31.08
2023-03-05T00:29:32.239Z,29.42
2023-03-05T00:29:44.197Z,30.45
2023-03-05T00:29:56.161Z,29.63
2023-03-05T00:30:09.095Z,29.30
2023-03-05T00:30:21.102Z,28.60
2023-03-05T00:30:33.812Z,28.90
2023-03-05T00:30:46.121Z,32.53
2023-03-05T00:31:01.341Z,33.22
2023-03-05T00:31:13.324Z,31.42
2023-03-05T00:31:33.951Z,31.75
2023-03-05T00:31:46.208Z,34.10
2023-03-05T00:31:58.526Z,33.95
2023-03-05T00:32:10.497Z,33.55
2023-03-05T00:32:22.588Z,32.15
2023-03-05T00:32:36.268Z,31.08
2023-03-05T00:32:48.416Z,29.40
2023-03-05T00:33:00.412Z,30.13
2023-03-05T00:33:13.335Z,31.15
2023-03-05T00:33:25.270Z,31.02
2023-03-05T00:33:37.299Z,32.65
2023-03-05T00:33:56.887Z,31.63
2023-03-05T00:34:12.207Z,33.88
2023-03-05T00:34:25.760Z,34.58
2023-03-05T00:34:37.800Z,31.23
2023-03-05T00:34:52.434Z,31.33
2023-03-05T00:35:04.767Z,31.10
2023-03-05T00:35:16.712Z,33.42
2023-03-05T00:35:29.118Z,31.50
2023-03-05T00:35:48.631Z,31.42
2023-03-05T00:36:05.913Z,33.38
2023-03-05T00:36:18.162Z,34.40
2023-03-05T00:36:30.493Z,31.35
2023-03-05T00:36:44.997Z,32.05
2023-03-05T00:36:57.058Z,31.97
2023-03-05T00:37:09.117Z,28.40
2023-03-05T00:37:21.059Z,27.95
2023-03-05T00:37:33.046Z,30.25
2023-03-05T00:37:45.069Z,30.35
2023-03-05T00:37:57.411Z,28.17
2023-03-05T00:38:10.571Z,30.30
2023-03-05T00:38:25.057Z,31.85
2023-03-05T00:38:37.037Z,31.50
2023-03-05T00:38:49.194Z,28.88
2023-03-05T00:39:01.373Z,29.17
2023-03-05T00:39:14.086Z,30.30
2023-03-05T00:39:26.005Z,30.17
2023-03-05T00:39:38.023Z,31.58
2023-03-05T00:39:49.983Z,31.10
2023-03-05T00:40:03.000Z,32.75
2023-03-05T00:40:15.247Z,30.88
2023-03-05T00:40:27.352Z,30.05
2023-03-05T00:40:40.833Z,29.58
2023-03-05T00:40:52.878Z,31.02
2023-03-05T00:41:04.878Z,29.40
2023-03-05T00:41:17.319Z,28.88
2023-03-05T00:41:29.241Z,27.45
2023-03-05T00:41:41.402Z,28.27
2023-03-05T00:41:56.336Z,30.23
2023-03-05T00:42:08.370Z,30.15
2023-03-05T00:42:20.324Z,30.92
2023-03-05T00:42:38.404Z,31.48
2023-03-05T00:42:50.581Z,31.20
2023-03-05T00:43:02.674Z,31.33
2023-03-05T00:43:14.609Z,30.17
2023-03-05T00:43:26.571Z,30.08
2023-03-05T00:43:38.481Z,29.65
2023-03-05T00:43:50.551Z,31.08
2023-03-05T00:44:02.858Z,31.50
2023-03-05T00:44:14.781Z,29.13
2023-03-05T00:44:26.831Z,29.95
2023-03-05T00:44:38.741Z,30.80
2023-03-05T00:44:50.664Z,27.90
2023-03-05T00:45:02.550Z,27.20
2023-03-05T00:45:14.713Z,28.02
2023-03-05T00:45:26.672Z,30.00
2023-03-05T00:45:39.026Z,27.38
2023-03-05T00:45:51.042Z,27.02
2023-03-05T00:46:03.176Z,30.77
2023-03-05T00:46:16.124Z,31.88
2023-03-05T00:46:28.500Z,30.15
2023-03-05T00:46:40.642Z,30.90
2023-03-05T00:46:52.824Z,30.58
2023-03-05T00:47:05.206Z,30.77
2023-03-05T00:47:18.422Z,28.98
2023-03-05T00:47:30.585Z,27.73
2023-03-05T00:47:42.536Z,29.15
2023-03-05T00:47:54.633Z,32.08
2023-03-05T00:48:06.666Z,31.50
2023-03-05T00:48:18.597Z,31.67
2023-03-05T00:48:30.622Z,30.15
2023-03-05T00:48:43.300Z,33.25
2023-03-05T00:48:55.865Z,33.58
2023-03-05T00:49:07.916Z,34.38
2023-03-05T00:49:20.008Z,32.95
2023-03-05T00:49:32.019Z,33.97
2023-03-05T00:49:44.143Z,33.97
2023-03-05T00:49:56.090Z,32.58
2023-03-05T00:50:09.190Z,30.85
2023-03-05T00:50:21.299Z,30.27
2023-03-05T00:50:33.225Z,29.73
2023-03-05T00:50:46.019Z,32.47
2023-03-05T00:50:58.034Z,32.30
2023-03-05T00:51:10.409Z,31.48
2023-03-05T00:51:23.116Z,30.20
2023-03-05T00:51:35.198Z,30.70
2023-03-05T00:51:47.230Z,30.38
2023-03-05T00:52:01.578Z,30.92
2023-03-05T00:52:13.589Z,30.17
2023-03-05T00:52:26.022Z,30.00
2023-03-05T00:52:38.266Z,31.20
2023-03-05T00:52:50.252Z,33.72
2023-03-05T00:53:02.229Z,33.17
2023-03-05T00:53:14.356Z,32.90
2023-03-05T00:53:26.601Z,31.55
2023-03-05T00:53:38.712Z,31.27
2023-03-05T00:53:50.930Z,30.20
2023-03-05T00:54:06.275Z,30.35
2023-03-05T00:54:18.718Z,26.77
2023-03-05T00:54:30.652Z,28.23
2023-03-05T00:54:42.603Z,30.33
2023-03-05T00:54:54.573Z,33.40
2023-03-05T00:55:06.874Z,33.22
2023-03-05T00:55:19.004Z,34.35
2023-03-05T00:55:31.082Z,30.77
2023-03-05T00:55:43.061Z,29.33
2023-03-05T00:55:55.085Z,28.10
2023-03-05T00:56:07.683Z,28.98
2023-03-05T00:56:20.226Z,30.33
2023-03-05T00:56:32.290Z,29.33
2023-03-05T00:56:44.994Z,28.48
2023-03-05T00:56:59.939Z,29.13
2023-03-05T00:57:11.889Z,31.20
2023-03-05T00:57:23.848Z,30.07
2023-03-05T00:57:35.827Z,26.02
2023-03-05T00:57:47.771Z,26.83
2023-03-05T00:57:59.690Z,29.33
2023-03-05T00:58:14.551Z,32.08
2023-03-05T00:58:26.763Z,31.75
2023-03-05T00:58:39.363Z,29.30
2023-03-05T00:58:51.559Z,29.13
2023-03-05T00:59:03.623Z,30.02
2023-03-05T00:59:15.532Z,28.92
2023-03-05T00:59:27.563Z,33.05
2023-03-05T00:59:39.523Z,33.13
2023-03-05T00:59:51.487Z,33.58
2023-03-05T01:00:04.302Z,30.98
2023-03-05T01:00:17.144Z,32.60
2023-03-05T01:00:29.565Z,33.45
2023-03-05T01:00:41.737Z,32.35
2023-03-05T01:00:57.626Z,31.02
2023-03-05T01:01:09.588Z,27.10
2023-03-05T01:01:21.772Z,27.20
2023-03-05T01:01:33.784Z,28.95
2023-03-05T01:01:45.873Z,29.02
2023-03-05T01:01:57.941Z,29.30
2023-03-05T01:02:10.350Z,31.77
2023-03-05T01:02:22.283Z,31.25
2023-03-05T01:02:34.893Z,30.17
2023-03-05T01:02:46.958Z,30.23
2023-03-05T01:02:58.978Z,30.88
2023-03-05T01:03:11.066Z,28.30
2023-03-05T01:03:23.069Z,27.67
2023-03-05T01:03:35.799Z,29.48
2023-03-05T01:03:47.802Z,28.88
2023-03-05T01:04:01.126Z,28.88
2023-03-05T01:04:13.169Z,29.17
2023-03-05T01:04:25.108Z,31.02
2023-03-05T01:04:37.260Z,33.25
2023-03-05T01:04:49.547Z,32.35
2023-03-05T01:05:01.999Z,32.42
2023-03-05T01:05:15.328Z,31.25
2023-03-05T01:05:27.545Z,29.38
2023-03-05T01:05:39.501Z,28.77
2023-03-05T01:05:51.463Z,27.85
2023-03-05T01:06:08.712Z,26.80
2023-03-05T01:06:46.651Z,31.90
2023-03-05T01:06:59.350Z,29.08
2023-03-05T01:07:11.412Z,28.67
2023-03-05T01:07:23.462Z,28.33
2023-03-05T01:07:35.350Z,29.95
2023-03-05T01:07:47.338Z,30.20
2023-03-05T01:07:59.338Z,27.63
2023-03-05T01:08:11.569Z,28.73
2023-03-05T01:08:24.782Z,32.60
2023-03-05T01:08:37.779Z,32.58
2023-03-05T01:08:50.170Z,31.35
2023-03-05T01:09:02.145Z,29.88
2023-03-05T01:09:17.057Z,29.98
2023-03-05T01:09:29.027Z,30.38
2023-03-05T01:09:40.951Z,32.38
2023-03-05T01:09:52.908Z,32.45
2023-03-05T01:10:06.020Z,31.60
2023-03-05T01:10:17.912Z,29.35
2023-03-05T01:10:30.202Z,31.70
2023-03-05T01:10:45.113Z,30.88
2023-03-05T01:10:57.158Z,28.75
2023-03-05T01:11:10.327Z,28.75
2023-03-05T01:11:22.411Z,29.55
2023-03-05T01:11:34.345Z,27.75
2023-03-05T01:11:46.247Z,25.25
2023-03-05T01:11:58.299Z,26.25
2023-03-05T01:12:10.209Z,28.33
2023-03-05T01:12:22.106Z,27.88
2023-03-05T01:12:34.121Z,26.42
2023-03-05T01:12:46.115Z,30.08
2023-03-05T01:12:58.349Z,29.70
2023-03-05T01:13:10.257Z,31.05
2023-03-05T01:13:22.426Z,30.17
2023-03-05T01:13:35.347Z,31.10
2023-03-05T01:13:47.340Z,31.90
2023-03-05T01:13:59.228Z,33.25
2023-03-05T01:14:11.172Z,31.00
2023-03-05T01:14:23.762Z,31.92
2023-03-05T01:14:36.674Z,31.70
2023-03-05T01:14:48.638Z,29.38
2023-03-05T01:15:00.562Z,29.55
2023-03-05T01:15:12.549Z,30.88
2023-03-05T01:15:25.260Z,31.13
2023-03-05T01:15:37.202Z,30.83
2023-03-05T01:15:50.952Z,30.48
2023-03-05T01:16:04.010Z,27.52
2023-03-05T01:16:15.987Z,28.83
2023-03-05T01:16:28.059Z,29.13
2023-03-05T01:16:40.119Z,28.08
2023-03-05T01:16:52.026Z,28.38
2023-03-05T01:17:04.178Z,31.65
2023-03-05T01:17:16.106Z,32.92
2023-03-05T01:17:28.018Z,33.33
2023-03-05T01:17:39.896Z,32.10
2023-03-05T01:17:52.001Z,32.08
2023-03-05T01:18:04.150Z,33.15
2023-03-05T01:18:16.771Z,34.33
2023-03-05T01:18:29.120Z,32.67
2023-03-05T01:18:41.128Z,30.48
2023-03-05T01:18:53.212Z,30.90
2023-03-05T01:19:05.204Z,31.73
2023-03-05T01:19:17.551Z,30.02
2023-03-05T01:19:29.724Z,28.95
2023-03-05T01:19:41.632Z,29.02
2023-03-05T01:19:53.536Z,29.83
2023-03-05T01:20:06.555Z,31.73
2023-03-05T01:20:21.364Z,32.47
2023-03-05T01:20:33.820Z,30.67
2023-03-05T01:20:46.226Z,29.98
2023-03-05T01:20:58.192Z,28.95
2023-03-05T01:21:10.501Z,28.10
2023-03-05T01:21:22.570Z,29.52
2023-03-05T01:21:36.014Z,28.15
2023-03-05T01:21:47.888Z,27.33
2023-03-05T01:22:00.101Z,27.50
2023-03-05T01:22:12.024Z,27.05
2023-03-05T01:22:23.980Z,26.92
2023-03-05T01:22:35.906Z,26.05
2023-03-05T01:22:48.082Z,30.02
2023-03-05T01:23:01.643Z,30.63
2023-03-05T01:23:16.158Z,27.92
2023-03-05T01:23:28.116Z,28.52
2023-03-05T01:23:40.253Z,29.48
2023-03-05T01:23:52.418Z,30.58
2023-03-05T01:24:04.886Z,30.60
2023-03-05T01:24:16.851Z,29.85
2023-03-05T01:24:30.956Z,27.45
2023-03-05T01:24:42.897Z,26.90
2023-03-05T01:24:54.865Z,28.60
2023-03-05T01:25:07.559Z,30.02
2023-03-05T01:25:20.064Z,28.67
2023-03-05T01:25:32.078Z,28.35
2023-03-05T01:25:44.323Z,28.27
2023-03-05T01:25:58.039Z,29.27
2023-03-05T01:26:10.076Z,30.92
2023-03-05T01:26:22.092Z,31.38
2023-03-05T01:26:34.616Z,32.97
2023-03-05T01:26:46.692Z,34.15
2023-03-05T01:26:58.818Z,31.45
2023-03-05T01:27:10.744Z,30.25
2023-03-05T01:27:23.173Z,27.52
2023-03-05T01:27:35.256Z,26.70
2023-03-05T01:27:47.340Z,24.80
2023-03-05T01:27:59.306Z,26.75
2023-03-05T01:28:11.488Z,29.73
2023-03-05T01:28:23.525Z,30.42
2023-03-05T01:28:38.637Z,27.50
2023-03-05T01:28:50.687Z,30.35
2023-03-05T01:29:02.975Z,31.02
2023-03-05T01:29:15.537Z,28.67
2023-03-05T01:29:28.164Z,30.33
2023-03-05T01:29:40.043Z,31.27
2023-03-05T01:29:51.963Z,31.40
2023-03-05T01:30:05.314Z,30.00
2023-03-05T01:30:17.360Z,29.50
2023-03-05T01:30:29.352Z,28.92
2023-03-05T01:30:41.264Z,28.00
2023-03-05T01:30:56.244Z,26.70
2023-03-05T01:31:09.851Z,28.13
2023-03-05T01:31:22.158Z,28.23
2023-03-05T01:31:34.172Z,27.80
2023-03-05T01:31:46.195Z,25.73
2023-03-05T01:31:58.207Z,25.33
2023-03-05T01:32:10.130Z,25.50
2023-03-05T01:32:22.094Z,24.52
2023-03-05T01:32:35.880Z,25.60
2023-03-05T01:32:47.912Z,27.75
2023-03-05T01:33:00.125Z,26.30
2023-03-05T01:33:12.028Z,28.60
2023-03-05T01:33:24.049Z,30.23
2023-03-05T01:33:36.205Z,29.60
2023-03-05T01:33:48.445Z,26.67
2023-03-05T01:34:00.415Z,26.08
2023-03-05T01:34:13.589Z,25.40
2023-03-05T01:34:25.508Z,25.98
2023-03-05T01:34:37.817Z,27.85
2023-03-05T01:34:49.792Z,27.13
2023-03-05T01:35:03.928Z,27.65
2023-03-05T01:35:21.382Z,28.02
2023-03-05T01:35:33.392Z,29.35
2023-03-05T01:35:49.200Z,28.63
2023-03-05T01:36:01.152Z,29.90
2023-03-05T01:36:16.697Z,30.02
2023-03-05T01:36:28.701Z,29.27
2023-03-05T01:36:42.358Z,29.42
2023-03-05T01:36:54.304Z,32.35
2023-03-05T01:37:06.213Z,30.52
2023-03-05T01:37:18.237Z,28.65
2023-03-05T01:37:30.597Z,29.25
2023-03-05T01:37:42.750Z,28.73
2023-03-05T01:37:54.932Z,28.27
2023-03-05T01:38:06.832Z,29.10
2023-03-05T01:38:18.977Z,28.90
2023-03-05T01:38:30.858Z,28.13
2023-03-05T01:38:44.436Z,26.27
2023-03-05T01:38:56.349Z,25.35
2023-03-05T01:39:08.402Z,26.55
2023-03-05T01:39:20.287Z,26.45
2023-03-05T01:39:32.261Z,26.40
2023-03-05T01:39:44.489Z,30.63
2023-03-05T01:39:56.535Z,31.67
2023-03-05T01:40:10.263Z,29.75
2023-03-05T01:40:26.312Z,26.30
2023-03-05T01:40:38.296Z,26.75
2023-03-05T01:40:50.968Z,26.80
2023-03-05T01:41:02.977Z,30.58
2023-03-05T01:41:16.124Z,32.10
2023-03-05T01:41:28.218Z,28.25
2023-03-05T01:41:40.182Z,25.90
2023-03-05T01:41:52.079Z,24.77
2023-03-05T01:42:04.843Z,24.73
2023-03-05T01:42:17.060Z,25.15
2023-03-05T01:42:28.981Z,26.83
2023-03-05T01:42:46.805Z,29.65
2023-03-05T01:43:23.923Z,29.90
2023-03-05T01:43:35.889Z,30.17
2023-03-05T01:43:48.836Z,29.10
2023-03-05T01:44:00.865Z,27.67
2023-03-05T01:44:30.409Z,27.98
2023-03-05T01:45:12.229Z,27.90
2023-03-05T01:45:24.994Z,25.95
2023-03-05T01:45:38.049Z,26.13
2023-03-05T01:46:17.722Z,25.50
2023-03-05T01:46:29.655Z,26.13
2023-03-05T01:46:41.634Z,26.73
2023-03-05T01:46:53.712Z,26.90
2023-03-05T01:47:05.772Z,26.60
2023-03-05T01:47:17.695Z,26.73
2023-03-05T01:47:30.237Z,26.25
2023-03-05T01:47:43.084Z,24.42
2023-03-05T01:47:54.982Z,25.92
2023-03-05T01:48:06.857Z,27.65
2023-03-05T01:48:18.830Z,27.60
2023-03-05T01:48:30.765Z,27.42
2023-03-05T01:48:47.308Z,24.42
2023-03-05T01:49:03.099Z,23.33
2023-03-05T01:49:20.770Z,24.02
2023-03-05T01:49:38.262Z,26.65
2023-03-05T01:49:50.194Z,26.63
2023-03-05T01:50:04.152Z,27.00
2023-03-05T01:50:22.777Z,28.02
2023-03-05T01:50:34.764Z,26.27
2023-03-05T01:50:46.829Z,24.60
2023-03-05T01:50:58.802Z,27.05
2023-03-05T01:51:10.760Z,28.25
2023-03-05T01:51:26.819Z,27.77
2023-03-05T01:51:55.073Z,26.45
2023-03-05T01:52:19.516Z,29.95
2023-03-05T01:52:33.403Z,27.40
2023-03-05T01:53:00.274Z,26.27
2023-03-05T01:53:12.329Z,28.13
2023-03-05T01:53:24.293Z,29.10
2023-03-05T01:53:36.841Z,28.58
2023-03-05T01:53:49.405Z,27.08
2023-03-05T01:54:03.195Z,25.38
2023-03-05T01:54:19.341Z,26.30
2023-03-05T01:54:37.138Z,28.73
2023-03-05T01:54:51.719Z,29.67
2023-03-05T01:55:08.017Z,30.63
2023-03-05T01:55:24.062Z,30.15
2023-03-05T01:55:37.249Z,28.42
2023-03-05T01:55:49.363Z,25.80
2023-03-05T01:56:01.594Z,26.55
2023-03-05T01:56:13.557Z,27.00
2023-03-05T01:56:27.565Z,26.13
2023-03-05T01:56:40.798Z,26.73
2023-03-05T01:56:55.969Z,27.67
2023-03-05T01:57:13.045Z,24.70
2023-03-05T01:57:30.373Z,25.92
2023-03-05T01:57:44.562Z,30.25
2023-03-05T01:58:03.143Z,31.02
2023-03-05T01:58:15.076Z,27.38
2023-03-05T01:58:27.480Z,26.15
2023-03-05T01:58:39.858Z,25.90
2023-03-05T01:58:53.428Z,26.55
2023-03-05T01:59:05.982Z,29.70
2023-03-05T01:59:18.866Z,30.17
2023-03-05T01:59:31.380Z,30.67
2023-03-05T01:59:45.993Z,30.43
2023-03-05T02:00:01.568Z,28.45
2023-03-05T02:00:25.054Z,26.77
2023-03-05T02:00:45.782Z,29.08
2023-03-05T02:00:58.257Z,28.48
2023-03-05T02:01:10.286Z,26.98
2023-03-05T02:01:22.316Z,25.80
2023-03-05T02:01:40.133Z,26.95
2023-03-05T02:01:55.998Z,28.10
2023-03-05T02:02:08.421Z,27.88
2023-03-05T02:02:22.110Z,27.85
2023-03-05T02:02:34.089Z,29.02
2023-03-05T02:02:48.861Z,28.98
2023-03-05T02:03:06.436Z,27.27
2023-03-05T02:03:19.713Z,28.58
2023-03-05T02:03:32.666Z,28.45
2023-03-05T02:03:45.325Z,26.42
2023-03-05T02:03:57.816Z,27.25
2023-03-05T02:04:13.019Z,26.83
2023-03-05T02:04:32.453Z,25.45
2023-03-05T02:04:52.577Z,25.52
2023-03-05T02:05:10.019Z,28.63
2023-03-05T02:05:31.345Z,26.52
2023-03-05T02:05:44.439Z,29.60
2023-03-05T02:05:56.366Z,28.80
2023-03-05T02:06:08.542Z,26.40
2023-03-05T02:06:20.499Z,27.30
2023-03-05T02:06:33.355Z,26.33
2023-03-05T02:06:46.934Z,27.48
2023-03-05T02:06:59.707Z,24.10
2023-03-05T02:07:12.636Z,23.25
2023-03-05T02:07:25.330Z,23.73
2023-03-05T02:07:40.048Z,25.05
2023-03-05T02:07:52.048Z,25.73
2023-03-05T02:08:07.121Z,25.33
2023-03-05T02:08:21.197Z,23.33
2023-03-05T02:08:33.094Z,24.38
2023-03-05T02:08:45.009Z,27.90
2023-03-05T02:08:57.126Z,28.35
2023-03-05T02:09:09.834Z,28.58
2023-03-05T02:09:23.868Z,27.58
2023-03-05T02:09:39.696Z,29.67
2023-03-05T02:09:51.770Z,27.60
2023-03-05T02:10:21.097Z,24.13
2023-03-05T02:10:37.507Z,27.88
2023-03-05T02:10:52.594Z,29.10
2023-03-05T02:11:05.089Z,25.83
2023-03-05T02:11:17.079Z,24.85
2023-03-05T02:11:29.387Z,26.77
2023-03-05T02:11:42.252Z,26.50
2023-03-05T02:11:55.160Z,24.70
2023-03-05T02:12:08.705Z,25.55
2023-03-05T02:12:21.083Z,27.77
2023-03-05T02:12:34.577Z,28.30
2023-03-05T02:12:49.058Z,28.52
2023-03-05T02:13:04.115Z,29.52
2023-03-05T02:13:20.008Z,26.77
2023-03-05T02:13:38.204Z,23.05
2023-03-05T02:13:50.223Z,23.58
2023-03-05T02:14:05.027Z,27.67
2023-03-05T02:14:16.995Z,30.80
2023-03-05T02:14:29.124Z,28.73
2023-03-05T02:14:45.013Z,30.40
2023-03-05T02:14:59.320Z,30.50
2023-03-05T02:15:12.436Z,31.17
2023-03-05T02:15:24.564Z,30.77
2023-03-05T02:15:37.808Z,28.98
2023-03-05T02:15:51.128Z,27.73
2023-03-05T02:16:03.196Z,29.02
2023-03-05T02:16:15.310Z,27.95
2023-03-05T02:16:35.705Z,25.08
2023-03-05T02:16:47.792Z,25.88
2023-03-05T02:16:59.940Z,28.42
2023-03-05T02:17:12.673Z,27.33
2023-03-05T02:17:27.768Z,28.98
2023-03-05T02:17:39.869Z,31.67
2023-03-05T02:17:51.995Z,30.88
2023-03-05T02:18:04.488Z,28.55
2023-03-05T02:18:20.998Z,29.83
2023-03-05T02:18:33.034Z,30.02
2023-03-05T02:18:45.063Z,29.92
2023-03-05T02:18:57.035Z,28.92
2023-03-05T02:19:11.837Z,30.77
2023-03-05T02:19:23.786Z,28.77
2023-03-05T02:19:56.410Z,28.88
2023-03-05T02:20:21.129Z,32.97
2023-03-05T02:20:53.850Z,30.50
2023-03-05T02:21:09.917Z,27.67
2023-03-05T02:21:35.506Z,31.50
2023-03-05T02:21:50.507Z,25.55
2023-03-05T02:22:02.472Z,28.70
2023-03-05T02:22:15.569Z,30.45
2023-03-05T02:22:27.507Z,29.95
2023-03-05T02:22:39.476Z,28.17
2023-03-05T02:22:51.875Z,27.95
2023-03-05T02:23:03.762Z,28.27
2023-03-05T02:23:17.288Z,26.90
2023-03-05T02:23:36.334Z,23.92
2023-03-05T02:23:48.220Z,24.38
2023-03-05T02:24:00.107Z,25.85
2023-03-05T02:24:17.491Z,27.48
2023-03-05T02:24:36.158Z,28.20
2023-03-05T02:24:48.389Z,30.60
2023-03-05T02:25:00.325Z,32.35
2023-03-05T02:25:17.855Z,28.27
2023-03-05T02:25:29.849Z,27.52
2023-03-05T02:25:41.853Z,26.20
2023-03-05T02:25:53.822Z,26.40
2023-03-05T02:26:09.153Z,24.40
2023-03-05T02:26:21.179Z,24.67
2023-03-05T02:26:33.110Z,27.40
2023-03-05T02:26:46.811Z,30.08
2023-03-05T02:26:58.761Z,30.98
2023-03-05T02:27:13.033Z,29.40
2023-03-05T02:27:34.809Z,31.58
2023-03-05T02:27:54.671Z,29.30
2023-03-05T02:28:13.823Z,27.15
2023-03-05T02:28:34.545Z,27.65
2023-03-05T02:28:53.655Z,25.73
2023-03-05T02:29:08.989Z,26.00
2023-03-05T02:29:21.097Z,24.77
2023-03-05T02:29:34.809Z,25.48
2023-03-05T02:29:46.766Z,25.88
2023-03-05T02:29:58.659Z,27.55
2023-03-05T02:30:11.341Z,26.50
2023-03-05T02:30:23.537Z,26.17
2023-03-05T02:30:35.961Z,27.80
2023-03-05T02:30:47.879Z,29.70
2023-03-05T02:31:00.019Z,27.17
2023-03-05T02:31:17.863Z,26.75
2023-03-05T02:31:31.159Z,26.85
2023-03-05T02:31:43.271Z,27.38
2023-03-05T02:31:55.490Z,29.70
2023-03-05T02:32:08.610Z,28.33
2023-03-05T02:32:20.720Z,28.70
2023-03-05T02:32:32.687Z,28.38
2023-03-05T02:32:44.654Z,29.00
2023-03-05T02:32:56.917Z,29.70
2023-03-05T02:33:08.917Z,29.02
2023-03-05T02:33:21.221Z,27.27
2023-03-05T02:33:33.118Z,26.60
2023-03-05T02:33:46.106Z,27.52
2023-03-05T02:33:58.092Z,30.52
2023-03-05T02:34:10.329Z,28.90
2023-03-05T02:34:23.324Z,29.27
2023-03-05T02:34:36.273Z,29.77
2023-03-05T02:34:48.167Z,28.52
2023-03-05T02:35:00.148Z,29.70
2023-03-05T02:35:12.101Z,29.70
2023-03-05T02:35:24.798Z,29.55
2023-03-05T02:35:36.885Z,29.35
2023-03-05T02:35:48.945Z,29.05
2023-03-05T02:36:00.974Z,28.48
2023-03-05T02:36:13.336Z,25.42
2023-03-05T02:36:25.454Z,26.85
2023-03-05T02:36:37.412Z,26.45
2023-03-05T02:36:50.322Z,25.17
2023-03-05T02:37:04.525Z,27.27
2023-03-05T02:37:16.469Z,29.40
2023-03-05T02:37:28.547Z,31.40
2023-03-05T02:37:40.892Z,31.23
2023-03-05T02:37:53.107Z,29.55
2023-03-05T02:38:05.036Z,24.73
2023-03-05T02:38:19.145Z,23.73
2023-03-05T02:38:31.078Z,24.30
2023-03-05T02:38:43.628Z,25.30
2023-03-05T02:38:57.082Z,27.35
2023-03-05T02:39:09.831Z,33.05
2023-03-05T02:39:21.803Z,33.95
2023-03-05T02:39:33.712Z,32.90
2023-03-05T02:39:45.608Z,32.85
2023-03-05T02:39:57.540Z,28.50
2023-03-05T02:40:10.875Z,26.40
2023-03-05T02:40:23.790Z,26.92
2023-03-05T02:40:35.682Z,28.65
2023-03-05T02:40:47.648Z,30.17
2023-03-05T02:40:59.628Z,27.50
2023-03-05T02:41:15.041Z,24.75
2023-03-05T02:41:27.107Z,25.40
2023-03-05T02:41:39.113Z,25.50
2023-03-05T02:41:51.087Z,26.05
2023-03-05T02:42:03.388Z,26.83
2023-03-05T02:42:15.368Z,25.08
2023-03-05T02:42:27.330Z,26.05
2023-03-05T02:42:39.894Z,26.58
2023-03-05T02:42:51.846Z,25.63
2023-03-05T02:43:03.812Z,27.02
2023-03-05T02:43:15.724Z,26.90
2023-03-05T02:43:27.654Z,28.75
2023-03-05T02:43:39.567Z,26.05
2023-03-05T02:43:51.521Z,24.45
2023-03-05T02:44:03.503Z,24.33
2023-03-05T02:44:15.472Z,25.77
2023-03-05T02:44:27.396Z,27.67
2023-03-05T02:44:39.324Z,26.98
2023-03-05T02:44:51.221Z,26.92
2023-03-05T02:45:06.461Z,27.25
2023-03-05T02:45:18.402Z,26.65
2023-03-05T02:45:30.463Z,25.58
2023-03-05T02:45:42.562Z,26.33
2023-03-05T02:45:54.647Z,26.20
2023-03-05T02:46:07.763Z,26.80
2023-03-05T02:46:19.997Z,27.73
2023-03-05T02:46:31.895Z,28.55
2023-03-05T02:46:43.850Z,29.55
2023-03-05T02:46:56.884Z,26.63
2023-03-05T02:47:08.933Z,28.00
2023-03-05T02:47:20.834Z,29.15
2023-03-05T02:47:33.069Z,29.05
2023-03-05T02:47:45.050Z,27.75
2023-03-05T02:47:56.962Z,29.38
2023-03-05T02:48:08.946Z,27.98
2023-03-05T02:48:20.968Z,27.38
2023-03-05T02:48:33.116Z,23.48
2023-03-05T02:48:45.458Z,22.70
2023-03-05T02:48:57.449Z,23.92
2023-03-05T02:49:09.418Z,28.08
2023-03-05T02:49:21.345Z,27.23
2023-03-05T02:49:33.271Z,28.65
2023-03-05T02:49:45.255Z,25.88
2023-03-05T02:49:57.658Z,26.60
2023-03-05T02:50:11.381Z,25.92